Jonestown, Texas
Current Conditions -  °F | °C
As of 4:55 PM on Thursday 18 Dec 2014 (Local Time) from KRYW Reporting Station
Overcast Overcast  
Wind Chill: 59°   Ceiling: 900
Heat Index: 59°   Visibility: 10mi
Dew Point: 55°   Wind: 5mph
Humidity: 88%   Direction: 90°E
Pressure: 30.05"   Gusts: NA
Location:  30.4521°N, 97.9683°W
Report Text: KRYW 182255Z AUTO 09004KT 10SM OVC009 15/13 A3005 RMK AO2 T01500130
Loading
Personal Weather Stations






























Interactive Weather Map New forecast layout! Learn more

10-Day Weather Forecast

Advertisements
Track Severe Weather on mobile